sensor_id;sensor_type;location;lat;lon;timestamp;temperature;humidity
47773;DHT22;33534;51.028;13.716;2022-07-10T00:01:07;16.30;60.80
47773;DHT22;33534;51.028;13.716;2022-07-10T00:03:33;16.30;60.40
47773;DHT22;33534;51.028;13.716;2022-07-10T00:05:58;16.30;60.20
47773;DHT22;33534;51.028;13.716;2022-07-10T00:08:24;16.20;60.40
47773;DHT22;33534;51.028;13.716;2022-07-10T00:10:49;16.20;59.90
47773;DHT22;33534;51.028;13.716;2022-07-10T00:13:15;16.20;59.60
47773;DHT22;33534;51.028;13.716;2022-07-10T00:15:40;16.10;60.10
47773;DHT22;33534;51.028;13.716;2022-07-10T00:18:06;16.20;59.90
47773;DHT22;33534;51.028;13.716;2022-07-10T00:20:32;16.10;59.90
47773;DHT22;33534;51.028;13.716;2022-07-10T00:22:57;16.10;59.90
47773;DHT22;33534;51.028;13.716;2022-07-10T00:25:23;16.10;59.90
47773;DHT22;33534;51.028;13.716;2022-07-10T00:27:49;16.00;60.30
47773;DHT22;33534;51.028;13.716;2022-07-10T00:30:14;16.00;60.70
47773;DHT22;33534;51.028;13.716;2022-07-10T00:32:40;15.80;61.20
47773;DHT22;33534;51.028;13.716;2022-07-10T00:35:06;15.70;61.40
47773;DHT22;33534;51.028;13.716;2022-07-10T00:37:32;15.50;61.80
47773;DHT22;33534;51.028;13.716;2022-07-10T00:39:58;15.40;62.10
47773;DHT22;33534;51.028;13.716;2022-07-10T00:42:25;15.30;62.30
47773;DHT22;33534;51.028;13.716;2022-07-10T00:44:51;15.30;62.00
47773;DHT22;33534;51.028;13.716;2022-07-10T00:47:17;15.40;62.00
47773;DHT22;33534;51.028;13.716;2022-07-10T00:49:45;15.40;61.90
47773;DHT22;33534;51.028;13.716;2022-07-10T00:52:13;15.40;61.50
47773;DHT22;33534;51.028;13.716;2022-07-10T00:54:43;15.50;61.30
47773;DHT22;33534;51.028;13.716;2022-07-10T00:57:09;15.50;60.90
47773;DHT22;33534;51.028;13.716;2022-07-10T00:59:35;15.40;61.00
47773;DHT22;33534;51.028;13.716;2022-07-10T01:02:05;15.40;61.10
47773;DHT22;33534;51.028;13.716;2022-07-10T01:04:31;15.40;61.10
47773;DHT22;33534;51.028;13.716;2022-07-10T01:06:58;15.40;61.20
47773;DHT22;33534;51.028;13.716;2022-07-10T01:09:23;15.30;61.10
47773;DHT22;33534;51.028;13.716;2022-07-10T01:11:50;15.30;61.30
47773;DHT22;33534;51.028;13.716;2022-07-10T01:14:16;15.30;61.40
47773;DHT22;33534;51.028;13.716;2022-07-10T01:16:42;15.20;61.50
47773;DHT22;33534;51.028;13.716;2022-07-10T01:19:07;15.20;61.50
47773;DHT22;33534;51.028;13.716;2022-07-10T01:21:34;15.20;61.30
47773;DHT22;33534;51.028;13.716;2022-07-10T01:24:04;15.20;61.40
47773;DHT22;33534;51.028;13.716;2022-07-10T01:26:31;15.10;61.60
47773;DHT22;33534;51.028;13.716;2022-07-10T01:28:57;15.10;61.80
47773;DHT22;33534;51.028;13.716;2022-07-10T01:31:26;15.10;61.70
47773;DHT22;33534;51.028;13.716;2022-07-10T01:33:54;15.10;61.70
47773;DHT22;33534;51.028;13.716;2022-07-10T01:36:21;15.20;61.30
47773;DHT22;33534;51.028;13.716;2022-07-10T01:38:47;15.10;61.40
47773;DHT22;33534;51.028;13.716;2022-07-10T01:41:12;15.00;61.50
47773;DHT22;33534;51.028;13.716;2022-07-10T01:43:38;15.00;61.90
47773;DHT22;33534;51.028;13.716;2022-07-10T01:46:08;15.00;62.20
47773;DHT22;33534;51.028;13.716;2022-07-10T01:48:37;15.00;62.10
47773;DHT22;33534;51.028;13.716;2022-07-10T01:51:03;15.00;62.30
47773;DHT22;33534;51.028;13.716;2022-07-10T01:53:29;15.00;62.20
47773;DHT22;33534;51.028;13.716;2022-07-10T01:55:55;15.00;62.30
47773;DHT22;33534;51.028;13.716;2022-07-10T01:58:20;15.00;62.70
47773;DHT22;33534;51.028;13.716;2022-07-10T02:00:46;15.00;62.60
47773;DHT22;33534;51.028;13.716;2022-07-10T02:03:12;14.90;62.50
47773;DHT22;33534;51.028;13.716;2022-07-10T02:05:56;14.90;63.00
47773;DHT22;33534;51.028;13.716;2022-07-10T02:08:21;14.90;63.20
47773;DHT22;33534;51.028;13.716;2022-07-10T02:10:47;15.00;63.30
47773;DHT22;33534;51.028;13.716;2022-07-10T02:13:12;14.90;63.20
47773;DHT22;33534;51.028;13.716;2022-07-10T02:15:40;14.90;63.70
47773;DHT22;33534;51.028;13.716;2022-07-10T02:18:06;14.90;63.70
47773;DHT22;33534;51.028;13.716;2022-07-10T02:20:32;14.90;63.90
47773;DHT22;33534;51.028;13.716;2022-07-10T02:23:00;14.90;64.00
47773;DHT22;33534;51.028;13.716;2022-07-10T02:25:26;14.90;64.50
47773;DHT22;33534;51.028;13.716;2022-07-10T02:27:51;14.90;64.30
47773;DHT22;33534;51.028;13.716;2022-07-10T02:30:17;14.90;64.70
47773;DHT22;33534;51.028;13.716;2022-07-10T02:32:42;14.80;65.10
47773;DHT22;33534;51.028;13.716;2022-07-10T02:35:08;14.80;65.30
47773;DHT22;33534;51.028;13.716;2022-07-10T02:37:34;14.80;65.10
47773;DHT22;33534;51.028;13.716;2022-07-10T02:39:59;14.80;65.40
47773;DHT22;33534;51.028;13.716;2022-07-10T02:42:25;14.80;65.20
47773;DHT22;33534;51.028;13.716;2022-07-10T02:44:51;14.80;65.30
47773;DHT22;33534;51.028;13.716;2022-07-10T02:52:09;14.60;65.80
47773;DHT22;33534;51.028;13.716;2022-07-10T02:54:34;14.70;65.90
47773;DHT22;33534;51.028;13.716;2022-07-10T02:57:00;14.70;65.80
47773;DHT22;33534;51.028;13.716;2022-07-10T02:59:26;14.70;66.00
47773;DHT22;33534;51.028;13.716;2022-07-10T03:01:52;14.60;66.40
47773;DHT22;33534;51.028;13.716;2022-07-10T03:04:17;14.60;66.20
47773;DHT22;33534;51.028;13.716;2022-07-10T03:06:43;14.60;66.40
47773;DHT22;33534;51.028;13.716;2022-07-10T03:09:09;14.60;66.50
47773;DHT22;33534;51.028;13.716;2022-07-10T03:11:34;14.60;66.60
47773;DHT22;33534;51.028;13.716;2022-07-10T03:14:00;14.60;66.50
47773;DHT22;33534;51.028;13.716;2022-07-10T03:16:26;14.50;66.30
47773;DHT22;33534;51.028;13.716;2022-07-10T03:18:51;14.50;66.50
47773;DHT22;33534;51.028;13.716;2022-07-10T03:21:17;14.50;66.30
47773;DHT22;33534;51.028;13.716;2022-07-10T03:23:42;14.50;66.50
47773;DHT22;33534;51.028;13.716;2022-07-10T03:26:08;14.50;66.50
47773;DHT22;33534;51.028;13.716;2022-07-10T03:28:34;14.60;66.30
47773;DHT22;33534;51.028;13.716;2022-07-10T03:30:59;14.60;65.90
47773;DHT22;33534;51.028;13.716;2022-07-10T03:33:25;14.60;66.20
47773;DHT22;33534;51.028;13.716;2022-07-10T03:35:50;14.60;66.10
47773;DHT22;33534;51.028;13.716;2022-07-10T03:38:16;14.60;66.10
47773;DHT22;33534;51.028;13.716;2022-07-10T03:40:42;14.60;66.10
47773;DHT22;33534;51.028;13.716;2022-07-10T03:43:07;14.60;66.10
47773;DHT22;33534;51.028;13.716;2022-07-10T03:45:33;14.60;66.00
47773;DHT22;33534;51.028;13.716;2022-07-10T03:47:59;14.60;65.60
47773;DHT22;33534;51.028;13.716;2022-07-10T03:50:24;14.60;66.10
47773;DHT22;33534;51.028;13.716;2022-07-10T03:52:50;14.60;65.60
47773;DHT22;33534;51.028;13.716;2022-07-10T03:55:15;14.60;65.90
47773;DHT22;33534;51.028;13.716;2022-07-10T03:57:41;14.60;65.40
47773;DHT22;33534;51.028;13.716;2022-07-10T04:00:23;14.60;65.50
47773;DHT22;33534;51.028;13.716;2022-07-10T04:02:55;14.50;65.70
47773;DHT22;33534;51.028;13.716;2022-07-10T04:05:21;14.50;65.70
47773;DHT22;33534;51.028;13.716;2022-07-10T04:07:47;14.60;66.00
47773;DHT22;33534;51.028;13.716;2022-07-10T04:10:13;14.50;65.70
47773;DHT22;33534;51.028;13.716;2022-07-10T04:12:38;14.50;65.50
47773;DHT22;33534;51.028;13.716;2022-07-10T04:15:04;14.70;65.40
47773;DHT22;33534;51.028;13.716;2022-07-10T04:17:30;14.60;65.30
47773;DHT22;33534;51.028;13.716;2022-07-10T04:19:58;14.60;65.20
47773;DHT22;33534;51.028;13.716;2022-07-10T04:22:24;14.60;65.70
47773;DHT22;33534;51.028;13.716;2022-07-10T04:24:55;14.60;65.50
47773;DHT22;33534;51.028;13.716;2022-07-10T04:27:20;14.60;65.20
47773;DHT22;33534;51.028;13.716;2022-07-10T04:29:47;14.70;65.20
47773;DHT22;33534;51.028;13.716;2022-07-10T04:32:13;14.70;65.00
47773;DHT22;33534;51.028;13.716;2022-07-10T04:34:38;14.70;64.90
47773;DHT22;33534;51.028;13.716;2022-07-10T04:37:05;14.90;64.50
47773;DHT22;33534;51.028;13.716;2022-07-10T04:39:30;15.00;64.50
47773;DHT22;33534;51.028;13.716;2022-07-10T04:41:56;15.30;63.70
47773;DHT22;33534;51.028;13.716;2022-07-10T04:44:22;15.50;63.20
47773;DHT22;33534;51.028;13.716;2022-07-10T04:46:47;15.70;62.40
47773;DHT22;33534;51.028;13.716;2022-07-10T04:49:13;15.90;61.50
47773;DHT22;33534;51.028;13.716;2022-07-10T04:51:39;16.10;60.90
47773;DHT22;33534;51.028;13.716;2022-07-10T04:54:04;16.10;60.90
47773;DHT22;33534;51.028;13.716;2022-07-10T04:56:30;16.20;60.50
47773;DHT22;33534;51.028;13.716;2022-07-10T04:58:55;16.20;60.30
47773;DHT22;33534;51.028;13.716;2022-07-10T05:01:21;16.10;61.00
47773;DHT22;33534;51.028;13.716;2022-07-10T05:03:47;16.20;61.00
47773;DHT22;33534;51.028;13.716;2022-07-10T05:06:13;16.30;60.50
47773;DHT22;33534;51.028;13.716;2022-07-10T05:08:39;16.50;60.10
47773;DHT22;33534;51.028;13.716;2022-07-10T05:11:04;16.70;59.20
47773;DHT22;33534;51.028;13.716;2022-07-10T05:13:30;16.60;59.20
47773;DHT22;33534;51.028;13.716;2022-07-10T05:15:56;16.50;59.80
47773;DHT22;33534;51.028;13.716;2022-07-10T05:18:21;16.40;60.10
47773;DHT22;33534;51.028;13.716;2022-07-10T05:20:47;16.50;59.70
47773;DHT22;33534;51.028;13.716;2022-07-10T05:23:15;16.50;60.00
47773;DHT22;33534;51.028;13.716;2022-07-10T05:25:41;16.50;59.90
47773;DHT22;33534;51.028;13.716;2022-07-10T05:28:07;16.40;59.90
47773;DHT22;33534;51.028;13.716;2022-07-10T05:30:33;16.20;60.50
47773;DHT22;33534;51.028;13.716;2022-07-10T05:32:59;16.10;61.30
47773;DHT22;33534;51.028;13.716;2022-07-10T05:35:25;16.10;61.30
47773;DHT22;33534;51.028;13.716;2022-07-10T05:37:52;16.10;61.10
47773;DHT22;33534;51.028;13.716;2022-07-10T05:40:18;16.30;61.00
47773;DHT22;33534;51.028;13.716;2022-07-10T05:42:43;16.50;60.50
47773;DHT22;33534;51.028;13.716;2022-07-10T05:45:10;16.50;61.20
47773;DHT22;33534;51.028;13.716;2022-07-10T05:47:36;16.60;60.90
47773;DHT22;33534;51.028;13.716;2022-07-10T05:50:02;16.50;60.40
47773;DHT22;33534;51.028;13.716;2022-07-10T05:52:28;16.60;60.60
47773;DHT22;33534;51.028;13.716;2022-07-10T05:54:55;16.60;61.30
47773;DHT22;33534;51.028;13.716;2022-07-10T05:57:21;16.30;63.30
47773;DHT22;33534;51.028;13.716;2022-07-10T05:59:47;16.00;64.70
47773;DHT22;33534;51.028;13.716;2022-07-10T06:02:12;15.90;65.80
47773;DHT22;33534;51.028;13.716;2022-07-10T06:04:39;16.00;65.70
47773;DHT22;33534;51.028;13.716;2022-07-10T06:07:04;16.10;64.80
47773;DHT22;33534;51.028;13.716;2022-07-10T06:09:30;16.30;64.40
47773;DHT22;33534;51.028;13.716;2022-07-10T06:11:56;16.60;63.90
47773;DHT22;33534;51.028;13.716;2022-07-10T06:14:21;17.00;62.50
47773;DHT22;33534;51.028;13.716;2022-07-10T06:16:47;16.90;62.10
47773;DHT22;33534;51.028;13.716;2022-07-10T06:19:12;17.00;63.30
47773;DHT22;33534;51.028;13.716;2022-07-10T06:21:38;17.00;62.10
47773;DHT22;33534;51.028;13.716;2022-07-10T06:24:04;17.10;61.80
47773;DHT22;33534;51.028;13.716;2022-07-10T06:26:29;17.70;60.40
47773;DHT22;33534;51.028;13.716;2022-07-10T06:28:55;18.40;58.50
47773;DHT22;33534;51.028;13.716;2022-07-10T06:31:20;18.90;56.40
47773;DHT22;33534;51.028;13.716;2022-07-10T06:33:46;18.80;56.40
47773;DHT22;33534;51.028;13.716;2022-07-10T06:36:12;18.80;56.30
47773;DHT22;33534;51.028;13.716;2022-07-10T06:38:38;18.90;56.70
47773;DHT22;33534;51.028;13.716;2022-07-10T06:41:04;18.90;56.80
47773;DHT22;33534;51.028;13.716;2022-07-10T06:43:29;18.60;56.90
47773;DHT22;33534;51.028;13.716;2022-07-10T06:45:55;18.30;58.10
47773;DHT22;33534;51.028;13.716;2022-07-10T06:48:21;18.10;58.40
47773;DHT22;33534;51.028;13.716;2022-07-10T06:50:48;18.00;58.90
47773;DHT22;33534;51.028;13.716;2022-07-10T06:53:13;17.90;57.00
47773;DHT22;33534;51.028;13.716;2022-07-10T06:55:40;17.70;56.70
47773;DHT22;33534;51.028;13.716;2022-07-10T06:58:06;17.70;57.70
47773;DHT22;33534;51.028;13.716;2022-07-10T07:00:31;17.70;57.50
47773;DHT22;33534;51.028;13.716;2022-07-10T07:02:57;17.70;58.00
47773;DHT22;33534;51.028;13.716;2022-07-10T07:05:22;17.70;57.70
47773;DHT22;33534;51.028;13.716;2022-07-10T07:07:48;17.70;57.90
47773;DHT22;33534;51.028;13.716;2022-07-10T07:10:14;17.70;58.20
47773;DHT22;33534;51.028;13.716;2022-07-10T07:12:39;17.70;57.90
47773;DHT22;33534;51.028;13.716;2022-07-10T07:15:06;17.50;58.00
47773;DHT22;33534;51.028;13.716;2022-07-10T07:17:32;17.30;59.30
47773;DHT22;33534;51.028;13.716;2022-07-10T07:20:14;17.30;59.50
47773;DHT22;33534;51.028;13.716;2022-07-10T07:22:58;17.10;59.70
47773;DHT22;33534;51.028;13.716;2022-07-10T07:25:37;17.40;59.60
47773;DHT22;33534;51.028;13.716;2022-07-10T07:28:05;17.80;58.70
47773;DHT22;33534;51.028;13.716;2022-07-10T07:30:31;18.10;58.20
47773;DHT22;33534;51.028;13.716;2022-07-10T07:32:57;18.40;56.60
47773;DHT22;33534;51.028;13.716;2022-07-10T07:35:22;18.50;55.90
47773;DHT22;33534;51.028;13.716;2022-07-10T07:37:49;18.60;55.60
47773;DHT22;33534;51.028;13.716;2022-07-10T07:40:19;19.40;54.70
47773;DHT22;33534;51.028;13.716;2022-07-10T07:42:46;20.70;50.50
47773;DHT22;33534;51.028;13.716;2022-07-10T07:45:12;21.40;49.10
47773;DHT22;33534;51.028;13.716;2022-07-10T07:47:50;21.90;47.10
47773;DHT22;33534;51.028;13.716;2022-07-10T07:50:21;22.40;46.20
47773;DHT22;33534;51.028;13.716;2022-07-10T07:52:47;23.40;43.90
47773;DHT22;33534;51.028;13.716;2022-07-10T07:55:14;24.90;40.90
47773;DHT22;33534;51.028;13.716;2022-07-10T07:57:41;26.50;37.50
47773;DHT22;33534;51.028;13.716;2022-07-10T08:00:07;27.20;35.90
47773;DHT22;33534;51.028;13.716;2022-07-10T08:02:34;27.20;35.80
47773;DHT22;33534;51.028;13.716;2022-07-10T08:05:00;27.30;36.80
47773;DHT22;33534;51.028;13.716;2022-07-10T08:07:40;26.30;36.70
47773;DHT22;33534;51.028;13.716;2022-07-10T08:10:08;25.50;37.50
47773;DHT22;33534;51.028;13.716;2022-07-10T08:12:34;24.70;39.20
47773;DHT22;33534;51.028;13.716;2022-07-10T08:14:59;23.50;42.30
47773;DHT22;33534;51.028;13.716;2022-07-10T08:17:26;22.50;44.40
47773;DHT22;33534;51.028;13.716;2022-07-10T08:19:51;22.20;46.50
47773;DHT22;33534;51.028;13.716;2022-07-10T08:22:17;22.30;45.00
47773;DHT22;33534;51.028;13.716;2022-07-10T08:24:43;23.00;43.10
47773;DHT22;33534;51.028;13.716;2022-07-10T08:27:09;23.30;43.60
47773;DHT22;33534;51.028;13.716;2022-07-10T08:29:34;22.90;44.50
47773;DHT22;33534;51.028;13.716;2022-07-10T08:32:00;23.10;44.70
47773;DHT22;33534;51.028;13.716;2022-07-10T08:34:26;23.40;43.40
47773;DHT22;33534;51.028;13.716;2022-07-10T08:36:53;24.00;43.30
47773;DHT22;33534;51.028;13.716;2022-07-10T08:39:19;25.00;39.60
47773;DHT22;33534;51.028;13.716;2022-07-10T08:41:48;25.90;37.30
47773;DHT22;33534;51.028;13.716;2022-07-10T08:44:17;25.00;39.70
47773;DHT22;33534;51.028;13.716;2022-07-10T08:46:43;25.10;38.60
47773;DHT22;33534;51.028;13.716;2022-07-10T08:49:10;25.90;35.30
47773;DHT22;33534;51.028;13.716;2022-07-10T08:51:55;26.30;36.60
47773;DHT22;33534;51.028;13.716;2022-07-10T08:54:22;25.80;36.60
47773;DHT22;33534;51.028;13.716;2022-07-10T08:56:49;24.50;37.90
47773;DHT22;33534;51.028;13.716;2022-07-10T08:59:17;23.20;40.70
47773;DHT22;33534;51.028;13.716;2022-07-10T09:01:43;22.30;43.40
47773;DHT22;33534;51.028;13.716;2022-07-10T09:04:20;21.20;45.70
47773;DHT22;33534;51.028;13.716;2022-07-10T09:06:46;20.40;46.60
47773;DHT22;33534;51.028;13.716;2022-07-10T09:09:11;20.10;47.90
47773;DHT22;33534;51.028;13.716;2022-07-10T09:11:39;19.90;49.00
47773;DHT22;33534;51.028;13.716;2022-07-10T09:14:08;19.70;48.70
47773;DHT22;33534;51.028;13.716;2022-07-10T09:16:38;20.00;49.30
47773;DHT22;33534;51.028;13.716;2022-07-10T09:19:23;20.50;47.90
47773;DHT22;33534;51.028;13.716;2022-07-10T09:21:51;21.30;46.80
47773;DHT22;33534;51.028;13.716;2022-07-10T09:24:17;21.50;44.40
47773;DHT22;33534;51.028;13.716;2022-07-10T09:27:01;21.30;45.30
47773;DHT22;33534;51.028;13.716;2022-07-10T09:29:29;21.20;45.50
47773;DHT22;33534;51.028;13.716;2022-07-10T09:31:59;21.40;43.00
47773;DHT22;33534;51.028;13.716;2022-07-10T09:37:19;21.70;44.20
47773;DHT22;33534;51.028;13.716;2022-07-10T09:39:55;21.90;41.80
47773;DHT22;33534;51.028;13.716;2022-07-10T09:53:01;21.60;43.20
47773;DHT22;33534;51.028;13.716;2022-07-10T09:55:34;21.80;43.50
47773;DHT22;33534;51.028;13.716;2022-07-10T09:58:00;22.00;45.10
47773;DHT22;33534;51.028;13.716;2022-07-10T10:00:38;21.90;42.10
47773;DHT22;33534;51.028;13.716;2022-07-10T10:03:06;21.80;44.60
47773;DHT22;33534;51.028;13.716;2022-07-10T10:08:24;21.50;43.80
47773;DHT22;33534;51.028;13.716;2022-07-10T10:10:51;21.50;42.20
47773;DHT22;33534;51.028;13.716;2022-07-10T10:13:21;21.70;41.40
47773;DHT22;33534;51.028;13.716;2022-07-10T10:15:48;21.90;41.10
47773;DHT22;33534;51.028;13.716;2022-07-10T10:18:19;22.30;40.70
47773;DHT22;33534;51.028;13.716;2022-07-10T10:20:46;22.80;39.70
47773;DHT22;33534;51.028;13.716;2022-07-10T10:23:14;23.30;38.20
47773;DHT22;33534;51.028;13.716;2022-07-10T10:25:43;23.40;38.60
47773;DHT22;33534;51.028;13.716;2022-07-10T10:28:10;23.10;37.30
47773;DHT22;33534;51.028;13.716;2022-07-10T10:30:38;22.90;37.70
47773;DHT22;33534;51.028;13.716;2022-07-10T10:35:56;22.00;39.30
47773;DHT22;33534;51.028;13.716;2022-07-10T10:38:21;22.00;40.80
47773;DHT22;33534;51.028;13.716;2022-07-10T10:40:47;21.90;40.00
47773;DHT22;33534;51.028;13.716;2022-07-10T10:43:23;21.60;41.90
47773;DHT22;33534;51.028;13.716;2022-07-10T10:45:51;21.80;41.70
47773;DHT22;33534;51.028;13.716;2022-07-10T10:48:18;21.60;42.50
47773;DHT22;33534;51.028;13.716;2022-07-10T10:50:53;21.30;43.10
47773;DHT22;33534;51.028;13.716;2022-07-10T11:01:05;22.00;42.10
47773;DHT22;33534;51.028;13.716;2022-07-10T11:06:47;22.10;40.30
47773;DHT22;33534;51.028;13.716;2022-07-10T11:09:27;21.70;41.70
47773;DHT22;33534;51.028;13.716;2022-07-10T11:12:08;21.60;41.70
47773;DHT22;33534;51.028;13.716;2022-07-10T11:14:36;21.60;39.70
47773;DHT22;33534;51.028;13.716;2022-07-10T11:17:04;21.70;40.90
47773;DHT22;33534;51.028;13.716;2022-07-10T11:19:30;21.50;41.50
47773;DHT22;33534;51.028;13.716;2022-07-10T11:25:03;21.50;42.20
47773;DHT22;33534;51.028;13.716;2022-07-10T11:30:13;21.30;41.90
47773;DHT22;33534;51.028;13.716;2022-07-10T11:32:39;21.20;43.50
47773;DHT22;33534;51.028;13.716;2022-07-10T11:35:14;21.30;42.30
47773;DHT22;33534;51.028;13.716;2022-07-10T11:37:52;21.50;42.90
47773;DHT22;33534;51.028;13.716;2022-07-10T11:40:19;21.90;41.00
47773;DHT22;33534;51.028;13.716;2022-07-10T11:42:55;22.10;41.10
47773;DHT22;33534;51.028;13.716;2022-07-10T11:45:31;21.90;39.90
47773;DHT22;33534;51.028;13.716;2022-07-10T11:47:58;22.40;40.50
47773;DHT22;33534;51.028;13.716;2022-07-10T11:50:25;22.50;39.40
47773;DHT22;33534;51.028;13.716;2022-07-10T11:52:51;22.50;39.30
47773;DHT22;33534;51.028;13.716;2022-07-10T11:55:22;22.80;39.30
47773;DHT22;33534;51.028;13.716;2022-07-10T11:57:47;23.00;39.00
47773;DHT22;33534;51.028;13.716;2022-07-10T12:00:27;22.80;38.40
47773;DHT22;33534;51.028;13.716;2022-07-10T12:02:54;22.50;40.50
47773;DHT22;33534;51.028;13.716;2022-07-10T12:05:34;22.00;40.80
47773;DHT22;33534;51.028;13.716;2022-07-10T12:08:00;21.30;41.70
47773;DHT22;33534;51.028;13.716;2022-07-10T12:10:29;20.90;43.10
47773;DHT22;33534;51.028;13.716;2022-07-10T12:13:09;20.70;43.30
47773;DHT22;33534;51.028;13.716;2022-07-10T12:15:43;20.50;44.50
47773;DHT22;33534;51.028;13.716;2022-07-10T12:18:18;20.40;45.20
47773;DHT22;33534;51.028;13.716;2022-07-10T12:20:45;20.40;45.50
47773;DHT22;33534;51.028;13.716;2022-07-10T12:23:17;20.10;46.00
47773;DHT22;33534;51.028;13.716;2022-07-10T12:25:43;20.00;46.60
47773;DHT22;33534;51.028;13.716;2022-07-10T12:28:10;19.90;46.70
47773;DHT22;33534;51.028;13.716;2022-07-10T12:30:45;20.10;45.60
47773;DHT22;33534;51.028;13.716;2022-07-10T12:33:13;20.20;45.50
47773;DHT22;33534;51.028;13.716;2022-07-10T12:40:47;20.70;43.80
47773;DHT22;33534;51.028;13.716;2022-07-10T12:43:24;21.00;42.40
47773;DHT22;33534;51.028;13.716;2022-07-10T12:48:35;21.10;43.00
47773;DHT22;33534;51.028;13.716;2022-07-10T12:51:20;21.10;43.90
47773;DHT22;33534;51.028;13.716;2022-07-10T12:53:46;21.20;44.40
47773;DHT22;33534;51.028;13.716;2022-07-10T12:56:26;21.30;44.50
47773;DHT22;33534;51.028;13.716;2022-07-10T12:58:52;21.40;43.80
47773;DHT22;33534;51.028;13.716;2022-07-10T13:01:18;21.40;44.10
47773;DHT22;33534;51.028;13.716;2022-07-10T13:03:43;21.70;43.90
47773;DHT22;33534;51.028;13.716;2022-07-10T13:06:29;22.00;43.80
47773;DHT22;33534;51.028;13.716;2022-07-10T13:08:55;22.30;42.30
47773;DHT22;33534;51.028;13.716;2022-07-10T13:11:21;22.70;41.50
47773;DHT22;33534;51.028;13.716;2022-07-10T13:13:47;22.90;41.50
47773;DHT22;33534;51.028;13.716;2022-07-10T13:16:13;22.90;41.90
47773;DHT22;33534;51.028;13.716;2022-07-10T13:18:42;23.20;40.70
47773;DHT22;33534;51.028;13.716;2022-07-10T13:21:09;23.20;39.30
47773;DHT22;33534;51.028;13.716;2022-07-10T13:23:36;23.30;39.40
47773;DHT22;33534;51.028;13.716;2022-07-10T13:26:04;23.50;39.20
47773;DHT22;33534;51.028;13.716;2022-07-10T13:28:29;23.70;38.20
47773;DHT22;33534;51.028;13.716;2022-07-10T13:30:55;23.60;38.90
47773;DHT22;33534;51.028;13.716;2022-07-10T13:33:21;23.60;37.80
47773;DHT22;33534;51.028;13.716;2022-07-10T13:35:48;23.30;39.30
47773;DHT22;33534;51.028;13.716;2022-07-10T13:38:14;23.00;38.50
47773;DHT22;33534;51.028;13.716;2022-07-10T13:40:43;22.70;39.10
47773;DHT22;33534;51.028;13.716;2022-07-10T13:43:09;22.50;39.50
47773;DHT22;33534;51.028;13.716;2022-07-10T13:45:37;22.40;39.90
47773;DHT22;33534;51.028;13.716;2022-07-10T13:48:08;22.50;40.60
47773;DHT22;33534;51.028;13.716;2022-07-10T13:50:37;22.40;39.00
47773;DHT22;33534;51.028;13.716;2022-07-10T13:53:02;22.40;39.20
47773;DHT22;33534;51.028;13.716;2022-07-10T13:55:33;22.50;38.50
47773;DHT22;33534;51.028;13.716;2022-07-10T13:57:59;22.10;39.40
47773;DHT22;33534;51.028;13.716;2022-07-10T14:00:25;22.00;40.10
47773;DHT22;33534;51.028;13.716;2022-07-10T14:02:51;21.80;39.60
47773;DHT22;33534;51.028;13.716;2022-07-10T14:05:16;21.30;40.70
47773;DHT22;33534;51.028;13.716;2022-07-10T14:07:42;20.90;42.00
47773;DHT22;33534;51.028;13.716;2022-07-10T14:10:08;20.90;42.40
47773;DHT22;33534;51.028;13.716;2022-07-10T14:12:34;20.70;41.40
47773;DHT22;33534;51.028;13.716;2022-07-10T14:14:59;20.90;42.00
47773;DHT22;33534;51.028;13.716;2022-07-10T14:17:26;21.00;43.00
47773;DHT22;33534;51.028;13.716;2022-07-10T14:19:51;21.20;42.30
47773;DHT22;33534;51.028;13.716;2022-07-10T14:22:17;21.50;41.30
47773;DHT22;33534;51.028;13.716;2022-07-10T14:24:43;21.90;41.30
47773;DHT22;33534;51.028;13.716;2022-07-10T14:27:09;21.90;41.30
47773;DHT22;33534;51.028;13.716;2022-07-10T14:29:36;22.00;40.80
47773;DHT22;33534;51.028;13.716;2022-07-10T14:32:02;22.10;40.00
47773;DHT22;33534;51.028;13.716;2022-07-10T14:34:28;22.00;41.80
47773;DHT22;33534;51.028;13.716;2022-07-10T14:36:54;22.20;41.40
47773;DHT22;33534;51.028;13.716;2022-07-10T14:39:21;22.20;40.60
47773;DHT22;33534;51.028;13.716;2022-07-10T14:41:46;22.20;41.20
47773;DHT22;33534;51.028;13.716;2022-07-10T14:44:12;22.20;41.30
47773;DHT22;33534;51.028;13.716;2022-07-10T14:46:38;22.00;40.60
47773;DHT22;33534;51.028;13.716;2022-07-10T14:49:03;21.90;41.30
47773;DHT22;33534;51.028;13.716;2022-07-10T14:51:29;21.80;43.00
47773;DHT22;33534;51.028;13.716;2022-07-10T14:53:55;21.70;41.60
47773;DHT22;33534;51.028;13.716;2022-07-10T14:56:22;21.50;42.10
47773;DHT22;33534;51.028;13.716;2022-07-10T14:58:48;21.20;42.90
47773;DHT22;33534;51.028;13.716;2022-07-10T15:01:14;21.20;41.80
47773;DHT22;33534;51.028;13.716;2022-07-10T15:03:41;21.20;42.70
47773;DHT22;33534;51.028;13.716;2022-07-10T15:06:07;21.20;42.40
47773;DHT22;33534;51.028;13.716;2022-07-10T15:08:32;21.10;41.30
47773;DHT22;33534;51.028;13.716;2022-07-10T15:10:59;21.20;43.00
47773;DHT22;33534;51.028;13.716;2022-07-10T15:13:28;21.20;42.40
47773;DHT22;33534;51.028;13.716;2022-07-10T15:15:53;21.40;41.30
47773;DHT22;33534;51.028;13.716;2022-07-10T15:18:20;21.60;41.60
47773;DHT22;33534;51.028;13.716;2022-07-10T15:20:46;21.60;41.50
47773;DHT22;33534;51.028;13.716;2022-07-10T15:23:12;21.60;41.40
47773;DHT22;33534;51.028;13.716;2022-07-10T15:25:41;21.60;42.20
47773;DHT22;33534;51.028;13.716;2022-07-10T15:28:08;21.50;42.00
47773;DHT22;33534;51.028;13.716;2022-07-10T15:30:34;21.30;42.10
47773;DHT22;33534;51.028;13.716;2022-07-10T15:33:01;21.00;42.30
47773;DHT22;33534;51.028;13.716;2022-07-10T15:35:26;21.00;42.30
47773;DHT22;33534;51.028;13.716;2022-07-10T15:37:52;21.10;42.20
47773;DHT22;33534;51.028;13.716;2022-07-10T15:40:18;21.10;42.30
47773;DHT22;33534;51.028;13.716;2022-07-10T15:42:43;21.20;42.20
47773;DHT22;33534;51.028;13.716;2022-07-10T15:45:09;21.20;42.50
47773;DHT22;33534;51.028;13.716;2022-07-10T15:47:35;21.30;42.70
47773;DHT22;33534;51.028;13.716;2022-07-10T15:50:01;21.30;42.10
47773;DHT22;33534;51.028;13.716;2022-07-10T15:52:27;21.10;42.10
47773;DHT22;33534;51.028;13.716;2022-07-10T15:54:53;20.90;42.70
47773;DHT22;33534;51.028;13.716;2022-07-10T15:57:18;20.70;43.30
47773;DHT22;33534;51.028;13.716;2022-07-10T15:59:44;20.80;43.40
47773;DHT22;33534;51.028;13.716;2022-07-10T16:02:09;20.90;42.80
47773;DHT22;33534;51.028;13.716;2022-07-10T16:04:36;21.00;42.60